createdAt,value
2022-10-28T00:01:41.873Z,4.57
2022-10-28T00:04:16.917Z,4.30
2022-10-28T00:06:51.839Z,4.53
2022-10-28T00:09:26.771Z,4.37
2022-10-28T00:12:01.688Z,4.43
2022-10-28T00:14:36.711Z,5.13
2022-10-28T00:17:11.633Z,4.70
2022-10-28T00:19:46.539Z,4.70
2022-10-28T00:22:21.430Z,4.33
2022-10-28T00:24:56.290Z,4.50
2022-10-28T00:27:33.202Z,4.90
2022-10-28T00:30:08.633Z,4.57
2022-10-28T00:32:43.555Z,3.53
2022-10-28T00:35:18.495Z,4.20
2022-10-28T00:37:53.937Z,4.57
2022-10-28T00:40:34.453Z,4.63
2022-10-28T00:43:12.250Z,4.17
2022-10-28T00:45:47.127Z,5.00
2022-10-28T00:48:22.006Z,4.57
2022-10-28T00:50:57.135Z,4.70
2022-10-28T00:53:33.011Z,4.80
2022-10-28T00:56:10.186Z,4.00
2022-10-28T00:58:47.188Z,4.17
2022-10-28T01:01:22.343Z,4.57
2022-10-28T01:03:58.045Z,3.87
2022-10-28T01:06:32.960Z,4.40
2022-10-28T01:09:07.850Z,4.60
2022-10-28T01:12:10.776Z,3.87
2022-10-28T01:15:19.888Z,4.30
2022-10-28T01:18:08.027Z,4.57
2022-10-28T01:21:20.289Z,4.07
2022-10-28T01:24:43.556Z,4.67
2022-10-28T01:28:19.085Z,4.20
2022-10-28T01:31:36.278Z,3.80
2022-10-28T01:34:22.935Z,4.60
2022-10-28T01:37:15.705Z,4.57
2022-10-28T01:40:20.998Z,4.67
2022-10-28T01:43:05.514Z,5.20
2022-10-28T01:46:00.642Z,4.50
2022-10-28T01:48:58.969Z,4.30
2022-10-28T01:51:43.211Z,3.90
2022-10-28T01:54:24.043Z,4.50
2022-10-28T01:57:00.496Z,4.80
2022-10-28T01:59:36.590Z,4.30
2022-10-28T02:02:11.468Z,4.10
2022-10-28T02:04:46.350Z,3.90
2022-10-28T02:07:21.297Z,4.10
2022-10-28T02:10:16.719Z,4.17
2022-10-28T02:12:56.462Z,4.40
2022-10-28T02:15:38.473Z,4.07
2022-10-28T02:18:53.015Z,4.60
2022-10-28T02:21:44.525Z,4.00
2022-10-28T02:24:44.316Z,4.73
2022-10-28T02:27:34.574Z,4.40
2022-10-28T02:30:20.601Z,4.77
2022-10-28T02:33:02.533Z,4.83
2022-10-28T02:35:53.599Z,5.10
2022-10-28T02:38:42.773Z,5.50
2022-10-28T02:41:33.065Z,5.90
2022-10-28T02:44:14.713Z,5.10
2022-10-28T02:46:51.402Z,6.40
2022-10-28T02:49:27.935Z,5.47
2022-10-28T02:52:06.298Z,6.03
2022-10-28T02:54:45.656Z,6.13
2022-10-28T02:57:25.530Z,6.37
2022-10-28T03:00:06.799Z,5.17
2022-10-28T03:02:41.797Z,5.57
2022-10-28T03:05:17.651Z,6.00
2022-10-28T03:07:52.669Z,5.10
2022-10-28T03:10:27.858Z,5.00
2022-10-28T03:13:02.781Z,4.90
2022-10-28T03:15:37.728Z,6.00
2022-10-28T03:18:12.666Z,5.80
2022-10-28T03:20:47.697Z,5.83
2022-10-28T03:23:22.617Z,5.90
2022-10-28T03:25:57.529Z,5.27
2022-10-28T03:28:32.385Z,6.03
2022-10-28T03:31:07.300Z,5.80
2022-10-28T03:33:42.312Z,5.77
2022-10-28T03:36:17.142Z,6.83
2022-10-28T03:38:52.266Z,5.13
2022-10-28T03:41:27.178Z,6.27
2022-10-28T03:44:02.104Z,5.90
2022-10-28T03:46:36.973Z,4.87
2022-10-28T03:49:11.876Z,5.93
2022-10-28T03:51:46.717Z,6.03
2022-10-28T03:54:21.632Z,4.90
2022-10-28T03:56:56.501Z,5.47
2022-10-28T03:59:31.375Z,5.43
2022-10-28T04:02:06.362Z,5.53
2022-10-28T04:04:41.873Z,5.50
2022-10-28T04:07:16.740Z,6.57
2022-10-28T04:09:51.680Z,6.13
2022-10-28T04:12:26.624Z,6.03
2022-10-28T04:15:01.598Z,6.70
2022-10-28T04:17:36.616Z,6.03
2022-10-28T04:20:12.032Z,6.20
2022-10-28T04:22:47.213Z,5.53
2022-10-28T04:25:23.565Z,6.53
2022-10-28T04:27:58.552Z,6.40
2022-10-28T04:30:33.512Z,5.57
2022-10-28T04:33:12.358Z,6.10
2022-10-28T04:35:47.521Z,7.57
2022-10-28T04:41:03.765Z,6.17
2022-10-28T04:43:38.623Z,6.70
2022-10-28T04:46:13.649Z,7.03
2022-10-28T04:48:48.790Z,6.23
2022-10-28T04:51:23.664Z,6.27
2022-10-28T04:53:58.559Z,5.40
2022-10-28T04:56:33.437Z,6.30
2022-10-28T04:59:08.342Z,6.90
2022-10-28T05:01:43.476Z,5.10
2022-10-28T05:04:19.568Z,4.57
2022-10-28T05:06:54.478Z,5.70
2022-10-28T05:09:29.386Z,5.00
2022-10-28T05:12:04.544Z,5.43
2022-10-28T05:14:39.433Z,5.83
2022-10-28T05:17:14.313Z,5.67
2022-10-28T05:19:50.261Z,5.77
2022-10-28T05:22:25.184Z,5.90
2022-10-28T05:25:00.112Z,6.33
2022-10-28T05:27:34.940Z,5.73
2022-10-28T05:30:10.868Z,5.63
2022-10-28T05:32:47.449Z,5.20
2022-10-28T05:35:24.253Z,5.00
2022-10-28T05:37:59.579Z,4.90
2022-10-28T05:40:34.661Z,5.17
2022-10-28T05:43:10.516Z,5.27
2022-10-28T05:45:52.845Z,5.20
2022-10-28T05:48:28.563Z,4.87
2022-10-28T05:51:03.535Z,4.90
2022-10-28T05:53:38.439Z,4.90
2022-10-28T05:56:13.317Z,4.50
2022-10-28T06:01:25.308Z,5.00
2022-10-28T06:04:00.508Z,5.00
2022-10-28T06:06:35.476Z,5.53
2022-10-28T06:09:10.362Z,5.10
2022-10-28T06:11:43.772Z,4.50
2022-10-28T06:14:18.686Z,4.43
2022-10-28T06:16:53.594Z,4.50
2022-10-28T06:19:28.492Z,5.23
2022-10-28T06:22:04.490Z,5.83
2022-10-28T06:24:39.373Z,5.00
2022-10-28T06:27:14.258Z,4.73
2022-10-28T06:29:49.129Z,5.50
2022-10-28T06:32:24.044Z,5.00
2022-10-28T06:34:59.089Z,7.00
2022-10-28T06:37:34.069Z,5.40
2022-10-28T06:40:09.469Z,4.70
2022-10-28T06:42:44.368Z,5.70
2022-10-28T06:45:19.270Z,5.03
2022-10-28T06:48:01.446Z,5.20
2022-10-28T06:50:36.732Z,4.93
2022-10-28T06:53:11.650Z,4.63
2022-10-28T06:55:53.892Z,5.23
2022-10-28T06:58:28.828Z,4.73
2022-10-28T07:01:05.459Z,5.13
2022-10-28T07:03:41.708Z,6.13
2022-10-28T07:06:17.570Z,6.10
2022-10-28T07:08:52.569Z,5.20
2022-10-28T07:11:28.088Z,4.20
2022-10-28T07:14:03.095Z,5.20
2022-10-28T07:16:38.001Z,4.40
2022-10-28T07:19:12.938Z,5.10
2022-10-28T07:21:48.347Z,4.43
2022-10-28T07:24:23.323Z,4.90
2022-10-28T07:26:58.392Z,4.37
2022-10-28T07:29:33.281Z,3.83
2022-10-28T07:32:08.258Z,5.00
2022-10-28T07:34:43.194Z,4.30
2022-10-28T07:37:18.083Z,3.27
2022-10-28T07:39:53.007Z,3.57
2022-10-28T07:42:27.847Z,3.73
2022-10-28T07:45:04.009Z,4.00
2022-10-28T07:47:39.149Z,3.70
2022-10-28T07:50:14.194Z,3.90
2022-10-28T07:52:49.019Z,3.57
2022-10-28T07:55:24.029Z,4.17
2022-10-28T07:57:59.287Z,4.00
2022-10-28T08:00:34.369Z,4.33
2022-10-28T08:03:09.275Z,3.87
2022-10-28T08:05:45.015Z,3.90
2022-10-28T08:08:19.826Z,3.77
2022-10-28T08:10:54.688Z,3.67
2022-10-28T08:13:29.564Z,4.40
2022-10-28T08:16:04.774Z,4.40
2022-10-28T08:18:40.156Z,3.37
2022-10-28T08:21:16.349Z,3.57
2022-10-28T08:23:51.387Z,4.30
2022-10-28T08:26:26.277Z,3.90
2022-10-28T08:29:01.541Z,3.47
2022-10-28T08:31:36.508Z,3.77
2022-10-28T08:34:11.582Z,3.63
2022-10-28T08:36:46.512Z,3.70
2022-10-28T08:39:21.448Z,2.77
2022-10-28T08:42:23.914Z,4.23
2022-10-28T08:45:21.055Z,4.30
2022-10-28T08:48:14.585Z,4.97
2022-10-28T08:51:01.472Z,4.80
2022-10-28T08:53:54.312Z,5.43
2022-10-28T08:56:35.768Z,4.77
2022-10-28T08:59:13.867Z,4.10
2022-10-28T09:02:03.665Z,4.83
2022-10-28T09:04:40.629Z,5.20
2022-10-28T09:07:21.507Z,4.93
2022-10-28T09:09:56.593Z,5.17
2022-10-28T09:12:48.729Z,5.93
2022-10-28T09:15:46.184Z,4.63
2022-10-28T09:18:30.832Z,5.90
2022-10-28T09:21:34.973Z,5.47
2022-10-28T09:24:20.900Z,4.77
2022-10-28T09:27:31.299Z,5.40
2022-10-28T09:30:38.723Z,4.60
2022-10-28T09:33:51.339Z,5.77
2022-10-28T09:36:36.245Z,5.17
2022-10-28T09:39:26.813Z,5.60
2022-10-28T09:42:04.630Z,5.87
2022-10-28T09:44:54.841Z,6.43
2022-10-28T09:47:54.292Z,5.50
2022-10-28T09:50:32.900Z,6.33
2022-10-28T09:53:47.373Z,5.23
2022-10-28T09:56:22.423Z,5.60
2022-10-28T09:59:02.999Z,5.70
2022-10-28T10:01:41.549Z,5.30
2022-10-28T10:04:23.699Z,4.03
2022-10-28T10:07:08.582Z,4.50
2022-10-28T10:09:44.263Z,4.30
2022-10-28T10:12:19.328Z,4.33
2022-10-28T10:14:56.949Z,4.30
2022-10-28T10:17:46.276Z,3.80
2022-10-28T10:20:21.664Z,4.77
2022-10-28T10:22:56.988Z,4.40
2022-10-28T10:25:32.242Z,4.70
2022-10-28T10:28:16.317Z,3.93
2022-10-28T10:31:04.740Z,3.80
2022-10-28T10:33:40.717Z,3.17
2022-10-28T10:36:21.050Z,3.67
2022-10-28T10:39:02.325Z,2.87
2022-10-28T10:41:40.875Z,3.80
2022-10-28T10:44:21.892Z,3.23
2022-10-28T10:47:04.900Z,4.03
2022-10-28T10:49:41.477Z,3.93
2022-10-28T10:52:22.724Z,3.70
2022-10-28T10:55:21.295Z,3.37
2022-10-28T10:57:57.289Z,4.37
2022-10-28T11:00:38.004Z,3.40
2022-10-28T11:03:33.021Z,3.63
2022-10-28T11:06:23.636Z,3.40
2022-10-28T11:09:20.929Z,3.10
2022-10-28T11:11:56.319Z,2.80
2022-10-28T11:14:32.989Z,2.90
2022-10-28T11:17:28.252Z,2.87
2022-10-28T11:20:53.447Z,3.17
2022-10-28T11:23:49.584Z,2.23
2022-10-28T11:26:25.273Z,2.77
2022-10-28T11:29:14.701Z,2.97
2022-10-28T11:32:02.354Z,2.50
2022-10-28T11:35:22.301Z,2.80
2022-10-28T11:38:36.319Z,2.67
2022-10-28T11:41:27.543Z,3.10
2022-10-28T11:44:11.957Z,2.63
2022-10-28T11:47:07.908Z,2.53
2022-10-28T11:50:21.781Z,3.00
2022-10-28T11:53:53.972Z,4.20
2022-10-28T11:56:48.464Z,3.57
2022-10-28T12:00:04.089Z,3.50
2022-10-28T12:03:08.656Z,3.83
2022-10-28T12:06:20.340Z,2.90
2022-10-28T12:09:15.011Z,3.60
2022-10-28T12:12:16.660Z,2.70
2022-10-28T12:15:14.821Z,2.40
2022-10-28T12:17:58.159Z,2.30
2022-10-28T12:20:53.419Z,2.90
2022-10-28T12:23:32.062Z,2.20
2022-10-28T12:26:13.752Z,3.30
2022-10-28T12:29:03.637Z,2.63
2022-10-28T12:31:46.029Z,2.77
2022-10-28T12:34:32.014Z,3.43
2022-10-28T12:37:21.205Z,2.90
2022-10-28T12:40:06.768Z,3.77
2022-10-28T12:42:57.952Z,3.70
2022-10-28T12:45:33.655Z,3.10
2022-10-28T12:48:28.199Z,4.33
2022-10-28T12:51:11.302Z,3.10
2022-10-28T12:53:57.525Z,3.47
2022-10-28T12:56:52.733Z,3.90
2022-10-28T12:59:58.568Z,4.10
2022-10-28T13:03:01.466Z,3.60
2022-10-28T13:05:54.140Z,3.13
2022-10-28T13:08:40.751Z,3.70
2022-10-28T13:11:47.476Z,3.47
2022-10-28T13:15:05.697Z,3.90
2022-10-28T13:18:03.294Z,4.40
2022-10-28T13:20:54.358Z,4.23
2022-10-28T13:24:13.714Z,4.37
2022-10-28T13:26:49.576Z,4.70
2022-10-28T13:29:29.575Z,6.03
2022-10-28T13:32:04.647Z,5.20
2022-10-28T13:34:41.008Z,4.20
2022-10-28T13:37:22.974Z,3.00
2022-10-28T13:39:57.929Z,2.40
2022-10-28T13:42:48.202Z,2.87
2022-10-28T13:45:53.698Z,3.20
2022-10-28T13:48:48.506Z,3.40
2022-10-28T13:51:23.355Z,3.50
2022-10-28T13:53:59.165Z,2.43
2022-10-28T13:56:46.111Z,2.90
2022-10-28T13:59:29.292Z,3.23
2022-10-28T14:02:40.425Z,2.80
2022-10-28T14:05:24.968Z,3.10
2022-10-28T14:08:29.642Z,3.73
2022-10-28T14:11:14.431Z,3.70
2022-10-28T14:14:02.082Z,3.50
2022-10-28T14:16:44.207Z,3.10
2022-10-28T14:19:23.089Z,3.07
2022-10-28T14:22:06.740Z,3.10
2022-10-28T14:24:43.568Z,3.40
2022-10-28T14:27:41.638Z,3.97
2022-10-28T14:30:21.271Z,4.27
2022-10-28T14:33:19.074Z,4.23
2022-10-28T14:36:07.920Z,4.10
2022-10-28T14:38:57.942Z,4.27
2022-10-28T14:41:47.982Z,4.10
2022-10-28T14:45:11.591Z,4.60
2022-10-28T14:47:54.601Z,3.97
2022-10-28T14:50:40.768Z,4.63
2022-10-28T14:53:30.503Z,5.10
2022-10-28T14:59:38.453Z,5.03
2022-10-28T15:02:21.175Z,5.90
2022-10-28T15:05:12.739Z,5.33
2022-10-28T15:07:48.442Z,5.93
2022-10-28T15:10:30.204Z,6.20
2022-10-28T15:13:05.090Z,6.00
2022-10-28T15:15:52.716Z,5.57
2022-10-28T15:18:27.639Z,5.93
2022-10-28T15:21:16.489Z,6.03
2022-10-28T15:24:02.600Z,5.57
2022-10-28T15:26:37.598Z,4.20
2022-10-28T15:29:12.509Z,4.10
2022-10-28T15:32:13.462Z,4.00
2022-10-28T15:34:49.445Z,3.90
2022-10-28T15:37:29.608Z,3.60
2022-10-28T15:40:34.597Z,5.20
2022-10-28T15:43:25.427Z,5.63
2022-10-28T15:46:15.344Z,4.93
2022-10-28T15:48:55.454Z,4.00
2022-10-28T15:51:30.288Z,5.13
2022-10-28T15:54:18.652Z,4.90
2022-10-28T15:56:58.893Z,5.43
2022-10-28T15:59:33.735Z,5.80
2022-10-28T16:02:41.840Z,4.90
2022-10-28T16:05:32.078Z,4.37
2022-10-28T16:08:25.471Z,4.57
2022-10-28T16:11:04.245Z,4.80
2022-10-28T16:13:47.157Z,4.30
2022-10-28T16:16:28.127Z,4.50
2022-10-28T16:19:09.466Z,4.67
2022-10-28T16:21:44.676Z,5.03
2022-10-28T16:24:19.591Z,4.50
2022-10-28T16:26:54.618Z,4.83
2022-10-28T16:29:29.430Z,4.67
2022-10-28T16:32:05.048Z,5.03
2022-10-28T16:34:40.374Z,6.57
2022-10-28T16:37:23.740Z,6.17
2022-10-28T16:39:58.677Z,6.50
2022-10-28T16:42:33.655Z,5.83
2022-10-28T16:45:14.696Z,7.60
2022-10-28T16:47:49.577Z,5.40
2022-10-28T16:50:24.484Z,5.10
2022-10-28T16:52:59.450Z,4.93
2022-10-28T16:55:34.406Z,5.20
2022-10-28T16:58:09.485Z,5.57
2022-10-28T17:00:44.829Z,5.33
2022-10-28T17:03:19.896Z,6.10
2022-10-28T17:05:54.779Z,6.47
2022-10-28T17:08:56.616Z,5.40
2022-10-28T17:11:24.600Z,5.83
2022-10-28T17:13:59.621Z,7.77
2022-10-28T17:16:38.073Z,6.67
2022-10-28T17:19:15.601Z,5.90
2022-10-28T17:21:50.548Z,4.43
2022-10-28T17:24:25.475Z,4.30
2022-10-28T17:27:01.046Z,4.40
2022-10-28T17:29:36.081Z,4.33
2022-10-28T17:32:11.283Z,4.77
2022-10-28T17:34:46.252Z,10.43
2022-10-28T17:37:21.149Z,14.37
2022-10-28T17:39:56.993Z,9.07
2022-10-28T17:42:32.177Z,6.03
2022-10-28T17:45:08.005Z,6.87
2022-10-28T17:47:43.020Z,6.20
2022-10-28T17:50:18.273Z,6.63
2022-10-28T17:52:53.745Z,5.00
2022-10-28T17:55:28.889Z,5.50
2022-10-28T17:58:03.784Z,4.67
2022-10-28T18:00:38.719Z,6.00
2022-10-28T18:03:14.127Z,6.13
2022-10-28T18:05:48.971Z,5.97
2022-10-28T18:08:23.990Z,6.90
2022-10-28T18:11:00.061Z,8.70
2022-10-28T18:13:37.740Z,7.87
2022-10-28T18:16:15.957Z,6.53
2022-10-28T18:18:51.829Z,7.53
2022-10-28T18:21:26.761Z,7.40
2022-10-28T18:24:04.530Z,5.73
2022-10-28T18:26:40.823Z,5.50
2022-10-28T18:29:15.788Z,5.73
2022-10-28T18:31:50.823Z,5.40
2022-10-28T18:34:25.674Z,7.03
2022-10-28T18:37:00.613Z,7.70
2022-10-28T18:39:35.598Z,7.53
2022-10-28T18:42:12.366Z,8.30
2022-10-28T18:44:47.630Z,6.73
2022-10-28T18:47:22.538Z,6.10
2022-10-28T18:49:58.220Z,5.60
2022-10-28T18:52:33.088Z,6.33
2022-10-28T18:55:08.552Z,4.70
2022-10-28T18:57:43.396Z,5.43
2022-10-28T19:00:19.904Z,5.10
2022-10-28T19:05:34.799Z,4.50
2022-10-28T19:08:09.693Z,4.90
2022-10-28T19:10:44.547Z,4.07
2022-10-28T19:13:19.457Z,3.97
2022-10-28T19:15:54.602Z,4.47
2022-10-28T19:18:30.366Z,4.83
2022-10-28T19:21:15.612Z,4.30
2022-10-28T19:23:50.911Z,4.40
2022-10-28T19:26:25.947Z,4.10
2022-10-28T19:29:00.980Z,3.53
2022-10-28T19:31:37.960Z,4.60
2022-10-28T19:34:14.750Z,3.97
2022-10-28T19:36:49.794Z,4.70
2022-10-28T19:39:24.793Z,4.10
2022-10-28T19:41:59.721Z,5.57
2022-10-28T19:44:34.625Z,6.13
2022-10-28T19:47:09.652Z,5.43
2022-10-28T19:49:44.626Z,4.90
2022-10-28T19:52:20.083Z,5.50
2022-10-28T19:54:54.971Z,5.70
2022-10-28T19:57:29.814Z,7.53
2022-10-28T20:00:05.696Z,6.43
2022-10-28T20:02:47.803Z,6.53
2022-10-28T20:05:22.684Z,6.40
2022-10-28T20:07:57.712Z,6.10
2022-10-28T20:10:33.014Z,5.30
2022-10-28T20:13:08.300Z,5.83
2022-10-28T20:15:43.256Z,6.40
2022-10-28T20:18:18.232Z,6.20
2022-10-28T20:20:53.132Z,8.13
2022-10-28T20:23:29.043Z,7.53
2022-10-28T20:26:04.676Z,6.50
2022-10-28T20:28:40.200Z,5.50
2022-10-28T20:31:18.625Z,5.20
2022-10-28T20:34:00.522Z,4.67
2022-10-28T20:36:41.478Z,5.27
2022-10-28T20:39:20.730Z,5.20
2022-10-28T20:41:55.681Z,4.70
2022-10-28T20:44:30.539Z,5.50
2022-10-28T20:47:05.545Z,3.43
2022-10-28T20:49:42.612Z,4.37
2022-10-28T20:52:17.515Z,3.60
2022-10-28T20:54:52.520Z,3.93
2022-10-28T20:57:27.366Z,4.03
2022-10-28T21:00:03.740Z,4.40
2022-10-28T21:02:38.907Z,4.27
2022-10-28T21:05:13.916Z,3.60
2022-10-28T21:07:48.853Z,4.30
2022-10-28T21:10:24.356Z,5.20
2022-10-28T21:12:59.246Z,4.40
2022-10-28T21:15:36.984Z,5.20
2022-10-28T21:18:12.545Z,5.07
2022-10-28T21:20:47.498Z,4.60
2022-10-28T21:23:23.472Z,5.37
2022-10-28T21:26:01.680Z,4.80
2022-10-28T21:28:37.021Z,4.80
2022-10-28T21:31:17.966Z,4.17
2022-10-28T21:33:53.464Z,5.33
2022-10-28T21:36:30.749Z,5.20
2022-10-28T21:39:05.676Z,5.90
2022-10-28T21:41:40.569Z,5.70
2022-10-28T21:44:15.427Z,5.27
2022-10-28T21:46:50.333Z,5.80
2022-10-28T21:49:25.182Z,5.33
2022-10-28T21:52:00.002Z,6.43
2022-10-28T21:54:34.932Z,5.00
2022-10-28T21:57:10.027Z,4.50
2022-10-28T21:59:44.992Z,4.90
2022-10-28T22:02:19.946Z,3.83
2022-10-28T22:04:54.911Z,5.20
2022-10-28T22:07:30.365Z,4.40
2022-10-28T22:10:05.840Z,5.07
2022-10-28T22:12:40.720Z,4.60
2022-10-28T22:15:15.629Z,5.10
2022-10-28T22:17:50.565Z,3.70
2022-10-28T22:23:05.246Z,5.33
2022-10-28T22:25:40.204Z,6.13
2022-10-28T22:28:15.160Z,7.70
2022-10-28T22:30:50.074Z,7.27
2022-10-28T22:33:25.077Z,7.60
2022-10-28T22:36:03.123Z,8.80
2022-10-28T22:38:38.382Z,8.27
2022-10-28T22:41:29.211Z,9.07
2022-10-28T22:44:04.636Z,8.27
2022-10-28T22:46:41.095Z,8.47
2022-10-28T22:49:16.034Z,7.90
2022-10-28T22:51:51.104Z,7.40
2022-10-28T22:54:25.940Z,8.10
2022-10-28T22:57:01.810Z,7.57
2022-10-28T22:59:36.737Z,7.53
2022-10-28T23:02:11.733Z,8.60
2022-10-28T23:04:46.684Z,8.60
2022-10-28T23:07:21.545Z,9.17
2022-10-28T23:09:58.708Z,8.10
2022-10-28T23:12:33.576Z,7.60
2022-10-28T23:15:08.767Z,8.63
2022-10-28T23:17:49.282Z,8.40
2022-10-28T23:20:25.526Z,7.23
2022-10-28T23:23:00.384Z,8.00
2022-10-28T23:25:35.301Z,8.50
2022-10-28T23:28:10.238Z,6.60
2022-10-28T23:30:45.182Z,6.50
2022-10-28T23:33:20.319Z,6.33
2022-10-28T23:36:00.020Z,6.90
2022-10-28T23:38:34.867Z,6.47
2022-10-28T23:41:15.818Z,6.90
2022-10-28T23:43:50.888Z,7.97
2022-10-28T23:46:25.891Z,7.13
2022-10-28T23:49:00.770Z,7.30
2022-10-28T23:51:35.598Z,6.77
2022-10-28T23:54:11.281Z,6.90
2022-10-28T23:56:46.178Z,7.17
2022-10-28T23:59:21.108Z,6.93
